createdAt,value
2023-04-17T00:04:54.230Z,10.70
2023-04-17T00:07:36.630Z,10.70
2023-04-17T00:10:15.957Z,10.80
2023-04-17T00:12:47.024Z,10.90
2023-04-17T00:19:34.373Z,10.70
2023-04-17T00:22:09.394Z,10.60
2023-04-17T00:29:06.906Z,10.70
2023-04-17T00:40:18.721Z,10.70
2023-04-17T00:42:53.303Z,10.60
2023-04-17T00:48:09.320Z,10.50
2023-04-17T00:51:51.728Z,10.40
2023-04-17T00:54:25.758Z,10.50
2023-04-17T00:56:56.908Z,10.40
2023-04-17T00:59:42.562Z,10.50
2023-04-17T01:02:42.876Z,10.50
2023-04-17T01:05:19.766Z,10.60
2023-04-17T01:10:40.355Z,10.40
2023-04-17T01:13:16.775Z,10.30
2023-04-17T01:16:21.252Z,10.30
2023-04-17T01:18:54.630Z,10.20
2023-04-17T01:21:24.773Z,10.20
2023-04-17T01:29:27.611Z,10.00
2023-04-17T01:32:04.653Z,10.10
2023-04-17T01:34:38.231Z,10.20
2023-04-17T01:37:09.448Z,10.30
2023-04-17T01:39:36.742Z,10.20
2023-04-17T01:42:07.780Z,10.30
2023-04-17T01:44:36.953Z,10.30
2023-04-17T01:47:19.738Z,10.20
2023-04-17T01:50:00.258Z,10.20
2023-04-17T01:52:28.526Z,10.30
2023-04-17T01:54:57.863Z,10.20
2023-04-17T01:57:26.214Z,10.20
2023-04-17T02:00:19.896Z,10.20
2023-04-17T02:02:47.054Z,10.20
2023-04-17T02:05:18.505Z,10.20
2023-04-17T02:07:53.533Z,10.30
2023-04-17T02:10:20.682Z,10.30
2023-04-17T02:12:48.320Z,10.30
2023-04-17T02:15:16.746Z,10.40
2023-04-17T02:17:44.604Z,10.40
2023-04-17T02:20:12.624Z,10.40
2023-04-17T02:22:43.771Z,10.40
2023-04-17T02:25:12.584Z,10.40
2023-04-17T02:27:50.193Z,10.40
2023-04-17T02:30:18.108Z,10.40
2023-04-17T02:32:50.075Z,10.30
2023-04-17T02:35:18.600Z,10.30
2023-04-17T02:37:46.566Z,10.20
2023-04-17T02:40:14.888Z,10.20
2023-04-17T02:42:42.856Z,10.20
2023-04-17T02:45:12.132Z,10.20
2023-04-17T02:47:42.268Z,10.30
2023-04-17T02:54:37.038Z,10.40
2023-04-17T02:57:11.113Z,10.50
2023-04-17T02:59:39.563Z,10.40
2023-04-17T03:02:08.681Z,10.40
2023-04-17T03:04:48.200Z,10.30
2023-04-17T03:10:03.833Z,10.30
2023-04-17T03:12:44.236Z,10.20
2023-04-17T03:18:11.734Z,10.30
2023-04-17T03:20:42.503Z,10.30
2023-04-17T03:23:11.471Z,10.30
2023-04-17T03:25:41.764Z,10.30
2023-04-17T03:28:09.220Z,10.30
2023-04-17T03:30:38.835Z,10.20
2023-04-17T03:33:10.528Z,10.30
2023-04-17T03:35:44.616Z,10.30
2023-04-17T03:38:11.862Z,10.40
2023-04-17T03:40:42.374Z,10.50
2023-04-17T03:43:15.307Z,10.50
2023-04-17T03:45:42.634Z,10.60
2023-04-17T03:48:09.735Z,10.50
2023-04-17T03:51:00.608Z,10.40
2023-04-17T03:53:52.341Z,10.30
2023-04-17T04:00:46.744Z,10.20
2023-04-17T04:03:33.945Z,10.30
2023-04-17T04:06:02.940Z,10.30
2023-04-17T04:08:31.777Z,10.30
2023-04-17T04:11:14.478Z,10.30
2023-04-17T04:13:42.613Z,10.30
2023-04-17T04:19:04.435Z,10.30
2023-04-17T04:21:34.678Z,10.20
2023-04-17T04:24:05.315Z,10.30
2023-04-17T04:26:33.462Z,10.20
2023-04-17T04:29:01.846Z,10.10
2023-04-17T04:34:58.738Z,10.20
2023-04-17T04:38:03.462Z,10.00
2023-04-17T04:40:38.621Z,10.00
2023-04-17T04:43:08.779Z,10.10
2023-04-17T04:45:46.204Z,10.10
2023-04-17T04:48:15.052Z,10.10
2023-04-17T04:50:42.322Z,10.00
2023-04-17T04:53:13.138Z,10.00
2023-04-17T04:55:54.614Z,10.00
2023-04-17T04:58:23.108Z,10.00
2023-04-17T05:01:00.911Z,10.00
2023-04-17T05:03:38.101Z,10.00
2023-04-17T05:06:12.660Z,10.20
2023-04-17T05:08:48.382Z,10.20
2023-04-17T05:11:17.069Z,10.10
2023-04-17T05:13:44.051Z,10.10
2023-04-17T05:16:27.280Z,10.20
2023-04-17T05:18:59.613Z,10.20
2023-04-17T05:21:55.396Z,10.20
2023-04-17T05:24:56.908Z,10.30
2023-04-17T05:28:21.589Z,10.20
2023-04-17T05:35:14.137Z,10.20
2023-04-17T05:41:57.422Z,10.20
2023-04-17T05:48:54.209Z,10.40
2023-04-17T05:51:27.099Z,10.40
2023-04-17T05:54:01.649Z,10.30
2023-04-17T05:56:31.442Z,10.60
2023-04-17T06:03:27.165Z,10.40
2023-04-17T06:06:11.014Z,10.40
2023-04-17T06:13:16.093Z,10.50
2023-04-17T06:20:16.998Z,10.40
2023-04-17T06:22:47.184Z,10.40
2023-04-17T06:25:18.307Z,10.30
2023-04-17T06:27:48.104Z,10.40
2023-04-17T06:30:21.395Z,10.50
2023-04-17T06:32:58.665Z,10.50
2023-04-17T06:35:31.955Z,10.40
2023-04-17T06:38:09.626Z,10.40
2023-04-17T06:40:40.817Z,10.60
2023-04-17T06:43:14.427Z,10.60
2023-04-17T06:45:43.304Z,10.60
2023-04-17T06:48:11.248Z,10.60
2023-04-17T06:50:39.975Z,10.60
2023-04-17T06:53:09.035Z,10.70
2023-04-17T06:55:36.125Z,10.70
2023-04-17T06:58:06.016Z,10.80
2023-04-17T07:00:37.319Z,10.80
2023-04-17T07:03:09.206Z,10.60
2023-04-17T07:05:36.199Z,10.60
2023-04-17T07:08:12.578Z,10.60
2023-04-17T07:10:52.528Z,10.60
2023-04-17T07:13:19.446Z,10.40
2023-04-17T07:15:57.658Z,10.40
2023-04-17T07:18:36.672Z,10.30
2023-04-17T07:21:04.343Z,10.40
2023-04-17T07:23:33.248Z,10.50
2023-04-17T07:26:04.957Z,10.60
2023-04-17T07:28:34.654Z,10.50
2023-04-17T07:31:09.300Z,10.70
2023-04-17T07:33:48.040Z,10.70
2023-04-17T07:36:16.429Z,10.60
2023-04-17T07:38:44.564Z,10.50
2023-04-17T07:41:13.371Z,10.50
2023-04-17T07:43:43.456Z,10.60
2023-04-17T07:46:11.720Z,10.60
2023-04-17T07:48:41.019Z,10.70
2023-04-17T07:51:10.274Z,10.90
2023-04-17T07:53:40.167Z,10.80
2023-04-17T07:56:34.542Z,10.90
2023-04-17T07:59:06.080Z,10.80
2023-04-17T08:01:38.625Z,10.80
2023-04-17T08:04:05.909Z,10.80
2023-04-17T08:06:36.618Z,10.80
2023-04-17T08:09:05.017Z,10.70
2023-04-17T08:11:42.755Z,10.70
2023-04-17T08:14:17.488Z,10.70
2023-04-17T08:16:47.235Z,10.80
2023-04-17T08:19:14.670Z,10.70
2023-04-17T08:21:45.963Z,10.70
2023-04-17T08:24:14.517Z,10.70
2023-04-17T08:26:41.550Z,10.60
2023-04-17T08:32:00.234Z,10.90
2023-04-17T08:34:39.780Z,10.80
2023-04-17T08:37:11.557Z,10.90
2023-04-17T08:39:43.305Z,10.90
2023-04-17T08:42:17.750Z,11.00
2023-04-17T08:44:47.163Z,11.10
2023-04-17T08:47:29.874Z,11.00
2023-04-17T08:50:15.237Z,11.00
2023-04-17T08:53:00.233Z,11.10
2023-04-17T08:55:31.172Z,11.10
2023-04-17T08:58:11.016Z,11.10
2023-04-17T09:00:48.235Z,11.10
2023-04-17T09:03:40.478Z,11.10
2023-04-17T09:06:15.057Z,11.20
2023-04-17T09:09:00.573Z,11.30
2023-04-17T09:11:32.220Z,11.30
2023-04-17T09:14:01.807Z,11.30
2023-04-17T09:16:34.796Z,11.50
2023-04-17T09:19:08.421Z,11.50
2023-04-17T09:21:35.338Z,11.60
2023-04-17T09:24:02.311Z,11.50
2023-04-17T09:26:33.885Z,11.50
2023-04-17T09:29:23.920Z,11.60
2023-04-17T09:31:51.199Z,11.80
2023-04-17T09:34:25.734Z,11.80
2023-04-17T09:36:54.946Z,11.80
2023-04-17T09:39:27.304Z,11.90
2023-04-17T09:42:06.280Z,11.90
2023-04-17T09:44:37.048Z,11.80
2023-04-17T09:47:08.191Z,11.90
2023-04-17T09:49:56.571Z,12.00
2023-04-17T09:52:26.562Z,12.00
2023-04-17T09:54:54.491Z,12.00
2023-04-17T09:57:22.149Z,12.00
2023-04-17T10:00:03.067Z,12.00
2023-04-17T10:02:34.774Z,12.10
2023-04-17T10:05:03.785Z,12.30
2023-04-17T10:07:46.056Z,12.40
2023-04-17T10:10:30.548Z,12.40
2023-04-17T10:13:08.175Z,12.40
2023-04-17T10:15:39.663Z,12.30
2023-04-17T10:18:24.070Z,12.40
2023-04-17T10:20:55.675Z,12.50
2023-04-17T10:23:37.653Z,12.50
2023-04-17T10:26:29.193Z,12.60
2023-04-17T10:29:01.218Z,13.00
2023-04-17T10:32:09.285Z,13.10
2023-04-17T10:34:52.006Z,13.00
2023-04-17T10:37:20.827Z,13.00
2023-04-17T10:40:11.073Z,12.90
2023-04-17T10:42:40.522Z,12.90
2023-04-17T10:45:20.092Z,12.80
2023-04-17T10:48:01.650Z,12.80
2023-04-17T10:50:32.163Z,12.60
2023-04-17T10:53:04.237Z,12.50
2023-04-17T10:55:49.498Z,12.40
2023-04-17T10:58:21.817Z,12.50
2023-04-17T11:01:02.934Z,12.50
2023-04-17T11:03:33.760Z,12.50
2023-04-17T11:06:07.733Z,12.60
2023-04-17T11:08:35.673Z,12.80
2023-04-17T11:11:02.879Z,12.90
2023-04-17T11:13:37.866Z,12.90
2023-04-17T11:16:07.297Z,13.10
2023-04-17T11:18:38.135Z,13.10
2023-04-17T11:21:15.589Z,13.20
2023-04-17T11:23:56.169Z,13.20
2023-04-17T11:26:25.698Z,13.40
2023-04-17T11:28:53.646Z,13.50
2023-04-17T11:31:23.577Z,13.60
2023-04-17T11:33:54.493Z,13.60
2023-04-17T11:36:24.351Z,13.70
2023-04-17T11:38:55.345Z,13.40
2023-04-17T11:41:22.580Z,13.40
2023-04-17T11:43:54.139Z,13.60
2023-04-17T11:46:23.499Z,13.90
2023-04-17T11:48:52.814Z,14.20
2023-04-17T11:51:23.253Z,14.50
2023-04-17T11:53:53.174Z,15.20
2023-04-17T11:56:27.810Z,15.50
2023-04-17T11:58:59.657Z,15.40
2023-04-17T12:01:28.562Z,15.20
2023-04-17T12:03:59.698Z,15.40
2023-04-17T12:06:38.802Z,15.40
2023-04-17T12:09:18.370Z,15.40
2023-04-17T12:11:45.702Z,15.40
2023-04-17T12:14:17.424Z,15.10
2023-04-17T12:16:50.920Z,15.00
2023-04-17T12:19:19.996Z,14.80
2023-04-17T12:21:49.402Z,14.70
2023-04-17T12:24:22.023Z,14.50
2023-04-17T12:26:56.979Z,14.30
2023-04-17T12:29:56.551Z,14.00
2023-04-17T12:32:24.539Z,14.20
2023-04-17T12:34:53.690Z,14.30
2023-04-17T12:37:22.658Z,14.40
2023-04-17T12:39:51.498Z,14.60
2023-04-17T12:42:19.411Z,14.50
2023-04-17T12:44:48.651Z,14.40
2023-04-17T12:47:21.007Z,14.30
2023-04-17T12:49:48.926Z,14.40
2023-04-17T12:52:15.957Z,14.30
2023-04-17T12:54:45.540Z,14.30
2023-04-17T12:57:12.677Z,14.30
2023-04-17T12:59:39.778Z,14.20
2023-04-17T13:02:07.399Z,14.20
2023-04-17T13:05:02.677Z,14.20
2023-04-17T13:07:30.970Z,14.20
2023-04-17T13:09:58.217Z,14.40
2023-04-17T13:12:26.792Z,14.40
2023-04-17T13:14:54.469Z,14.40
2023-04-17T13:17:58.712Z,14.50
2023-04-17T13:27:30.662Z,14.70
2023-04-17T13:29:59.883Z,15.10
2023-04-17T13:32:33.839Z,15.00
2023-04-17T13:35:05.155Z,15.00
2023-04-17T13:37:34.834Z,15.10
2023-04-17T13:40:07.322Z,15.40
2023-04-17T13:42:34.172Z,15.60
2023-04-17T13:45:07.611Z,15.90
2023-04-17T13:47:40.195Z,15.60
2023-04-17T13:50:09.377Z,15.60
2023-04-17T13:52:36.411Z,15.40
2023-04-17T13:55:56.930Z,15.30
2023-04-17T13:58:26.041Z,15.30
2023-04-17T14:00:55.837Z,15.10
2023-04-17T14:03:26.428Z,14.90
2023-04-17T14:05:56.840Z,15.00
2023-04-17T14:08:30.415Z,15.10
2023-04-17T14:10:58.331Z,15.10
2023-04-17T14:13:33.927Z,15.10
2023-04-17T14:16:03.039Z,15.10
2023-04-17T14:18:39.216Z,15.20
2023-04-17T14:21:10.846Z,15.10
2023-04-17T14:23:39.949Z,15.00
2023-04-17T14:26:11.193Z,14.90
2023-04-17T14:28:41.474Z,15.00
2023-04-17T14:31:18.311Z,15.00
2023-04-17T14:33:51.280Z,15.20
2023-04-17T14:36:18.951Z,15.40
2023-04-17T14:38:53.963Z,15.60
2023-04-17T14:41:23.883Z,15.80
2023-04-17T14:43:51.702Z,15.80
2023-04-17T14:46:19.084Z,15.80
2023-04-17T14:48:54.747Z,15.90
2023-04-17T14:51:27.037Z,16.00
2023-04-17T14:54:00.009Z,15.90
2023-04-17T14:56:28.087Z,16.00
2023-04-17T14:59:08.389Z,16.20
2023-04-17T15:01:44.274Z,16.40
2023-04-17T15:04:12.740Z,16.60
2023-04-17T15:06:40.653Z,16.60
2023-04-17T15:09:09.428Z,16.50
2023-04-17T15:11:38.459Z,16.10
2023-04-17T15:14:18.368Z,15.70
2023-04-17T15:17:01.612Z,15.30
2023-04-17T15:19:32.240Z,15.30
2023-04-17T15:22:03.589Z,15.20
2023-04-17T15:24:31.504Z,15.30
2023-04-17T15:26:59.529Z,15.30
2023-04-17T15:29:30.225Z,15.40
2023-04-17T15:32:02.708Z,15.60
2023-04-17T15:34:30.000Z,15.70
2023-04-17T15:37:02.185Z,15.80
2023-04-17T15:43:53.333Z,16.00
2023-04-17T15:46:21.670Z,16.00
2023-04-17T15:52:32.575Z,16.20
2023-04-17T15:55:11.029Z,16.50
2023-04-17T15:57:52.413Z,16.50
2023-04-17T16:00:20.532Z,16.60
2023-04-17T16:03:02.276Z,16.60
2023-04-17T16:05:34.437Z,16.40
2023-04-17T16:08:07.382Z,16.30
2023-04-17T16:10:37.212Z,16.10
2023-04-17T16:13:09.416Z,16.00
2023-04-17T16:15:38.365Z,16.20
2023-04-17T16:18:07.234Z,16.20
2023-04-17T16:20:36.107Z,16.30
2023-04-17T16:23:14.190Z,16.40
2023-04-17T16:25:41.771Z,16.40
2023-04-17T16:28:09.269Z,16.40
2023-04-17T16:30:37.108Z,16.50
2023-04-17T16:33:08.361Z,16.60
2023-04-17T16:35:41.028Z,16.50
2023-04-17T16:38:12.188Z,16.50
2023-04-17T16:40:39.669Z,16.40
2023-04-17T16:43:09.375Z,16.40
2023-04-17T16:45:37.452Z,16.30
2023-04-17T16:48:08.609Z,16.30
2023-04-17T16:50:40.173Z,16.20
2023-04-17T16:53:11.511Z,16.10
2023-04-17T16:55:38.907Z,16.20
2023-04-17T16:58:06.167Z,16.00
2023-04-17T17:00:40.908Z,16.00
2023-04-17T17:05:58.635Z,15.70
2023-04-17T17:11:22.847Z,15.80
2023-04-17T17:13:50.926Z,15.70
2023-04-17T17:16:22.889Z,15.40
2023-04-17T17:18:53.760Z,15.30
2023-04-17T17:21:24.171Z,15.30
2023-04-17T17:23:54.001Z,15.40
2023-04-17T17:26:27.067Z,15.60
2023-04-17T17:28:55.564Z,15.50
2023-04-17T17:31:22.459Z,15.60
2023-04-17T17:33:52.839Z,15.60
2023-04-17T17:36:22.151Z,15.60
2023-04-17T17:38:59.146Z,15.50
2023-04-17T17:41:31.916Z,15.60
2023-04-17T17:44:01.189Z,15.40
2023-04-17T17:46:32.962Z,15.50
2023-04-17T17:49:13.094Z,15.50
2023-04-17T17:51:44.766Z,15.50
2023-04-17T17:54:13.136Z,15.50
2023-04-17T17:56:41.735Z,15.50
2023-04-17T17:59:14.489Z,15.50
2023-04-17T18:02:11.634Z,15.40
2023-04-17T18:04:43.249Z,15.40
2023-04-17T18:07:13.489Z,15.40
2023-04-17T18:09:50.853Z,15.30
2023-04-17T18:16:20.128Z,15.30
2023-04-17T18:21:36.800Z,15.20
2023-04-17T18:24:56.960Z,15.10
2023-04-17T18:33:39.405Z,14.90
2023-04-17T18:36:14.275Z,14.80
2023-04-17T18:38:58.625Z,14.70
2023-04-17T18:41:30.878Z,14.70
2023-04-17T18:46:46.877Z,14.60
2023-04-17T18:49:21.443Z,14.60
2023-04-17T18:51:49.238Z,14.60
2023-04-17T18:54:21.451Z,14.50
2023-04-17T18:56:53.064Z,14.50
2023-04-17T18:59:26.015Z,14.40
2023-04-17T19:01:58.173Z,14.50
2023-04-17T19:04:27.027Z,14.30
2023-04-17T19:07:07.180Z,14.20
2023-04-17T19:09:34.919Z,14.20
2023-04-17T19:14:47.083Z,14.10
2023-04-17T19:17:22.876Z,14.10
2023-04-17T19:23:03.177Z,14.10
2023-04-17T19:25:56.679Z,14.10
2023-04-17T19:28:36.265Z,14.00
2023-04-17T19:31:04.170Z,13.90
2023-04-17T19:39:44.862Z,13.80
2023-04-17T19:42:16.494Z,13.80
2023-04-17T19:45:44.740Z,13.80
2023-04-17T19:58:23.467Z,13.50
2023-04-17T20:06:19.147Z,13.50
2023-04-17T20:09:09.107Z,13.50
2023-04-17T20:11:46.945Z,13.50
2023-04-17T20:17:13.768Z,13.30
2023-04-17T20:19:56.267Z,13.30
2023-04-17T20:22:31.445Z,13.30
2023-04-17T20:27:45.407Z,13.30
2023-04-17T20:30:22.173Z,13.40
2023-04-17T20:35:36.429Z,13.30
2023-04-17T20:38:03.650Z,13.20
2023-04-17T20:40:30.845Z,13.10
2023-04-17T20:43:01.659Z,13.10
2023-04-17T20:45:29.221Z,13.10
2023-04-17T20:47:59.732Z,13.00
2023-04-17T20:50:31.232Z,13.00
2023-04-17T20:53:00.389Z,13.00
2023-04-17T20:55:28.924Z,13.00
2023-04-17T20:57:57.026Z,13.00
2023-04-17T21:00:27.249Z,12.80
2023-04-17T21:03:49.101Z,13.00
2023-04-17T21:06:32.497Z,13.00
2023-04-17T21:11:47.007Z,12.80
2023-04-17T21:14:26.383Z,12.70
2023-04-17T21:17:05.180Z,12.80
2023-04-17T21:19:36.779Z,12.80
2023-04-17T21:22:05.356Z,12.80
2023-04-17T21:24:34.013Z,12.70
2023-04-17T21:27:02.506Z,12.70
2023-04-17T21:29:53.025Z,12.60
2023-04-17T21:32:23.509Z,12.70
2023-04-17T21:34:51.708Z,12.60
2023-04-17T21:37:22.509Z,12.60
2023-04-17T21:40:14.639Z,12.60
2023-04-17T21:42:43.065Z,12.50
2023-04-17T21:45:12.121Z,12.50
2023-04-17T21:47:45.055Z,12.50
2023-04-17T21:53:03.736Z,12.40
2023-04-17T21:55:32.384Z,12.30
2023-04-17T21:58:06.481Z,12.40
2023-04-17T22:00:36.163Z,12.30
2023-04-17T22:03:04.725Z,12.30
2023-04-17T22:05:42.432Z,12.30
2023-04-17T22:08:11.978Z,12.30
2023-04-17T22:10:40.030Z,12.30
2023-04-17T22:13:10.265Z,12.30
2023-04-17T22:15:41.215Z,12.30
2023-04-17T22:18:37.576Z,12.20
2023-04-17T22:21:11.387Z,12.10
2023-04-17T22:23:40.987Z,12.20
2023-04-17T22:26:08.791Z,12.10
2023-04-17T22:28:38.813Z,12.10
2023-04-17T22:31:16.915Z,12.10
2023-04-17T22:33:43.988Z,12.10
2023-04-17T22:38:56.498Z,11.90
2023-04-17T22:41:29.164Z,11.90
2023-04-17T22:43:56.379Z,11.90
2023-04-17T22:46:25.381Z,11.90
2023-04-17T22:48:57.871Z,11.80
2023-04-17T22:51:33.500Z,11.80
2023-04-17T22:54:15.251Z,11.80
2023-04-17T22:56:47.053Z,11.70
2023-04-17T22:59:14.951Z,11.80
2023-04-17T23:01:45.732Z,11.70
2023-04-17T23:04:16.902Z,11.70
2023-04-17T23:06:51.603Z,11.70
2023-04-17T23:09:27.987Z,11.70
2023-04-17T23:11:56.065Z,11.70
2023-04-17T23:14:26.280Z,11.60
2023-04-17T23:16:59.145Z,11.50
2023-04-17T23:22:40.312Z,11.60
2023-04-17T23:25:09.006Z,11.50
2023-04-17T23:27:36.568Z,11.50
2023-04-17T23:30:04.897Z,11.40
2023-04-17T23:32:34.308Z,11.40
2023-04-17T23:35:03.478Z,11.30
2023-04-17T23:37:32.004Z,11.30
2023-04-17T23:40:01.737Z,11.40
2023-04-17T23:42:28.670Z,11.40
2023-04-17T23:44:58.051Z,11.40
2023-04-17T23:47:27.883Z,11.30
2023-04-17T23:50:00.966Z,11.30
2023-04-17T23:53:22.153Z,11.30
2023-04-17T23:55:49.207Z,11.30
2023-04-17T23:58:43.675Z,11.20
